sensor_id;sensor_type;location;lat;lon;timestamp;pressure;altitude;pressure_sealevel;temperature
76713;BMP280;65640;43.154;25.658;2023-04-15T00:01:23;99875.88;;;12.60
76713;BMP280;65640;43.154;25.658;2023-04-15T00:03:53;99876.97;;;12.59
76713;BMP280;65640;43.154;25.658;2023-04-15T00:06:22;99879.75;;;12.62
76713;BMP280;65640;43.154;25.658;2023-04-15T00:08:48;99867.25;;;12.59
76713;BMP280;65640;43.154;25.658;2023-04-15T00:11:15;99867.53;;;12.57
76713;BMP280;65640;43.154;25.658;2023-04-15T00:13:41;99859.41;;;12.68
76713;BMP280;65640;43.154;25.658;2023-04-15T00:16:08;99856.06;;;12.76
76713;BMP280;65640;43.154;25.658;2023-04-15T00:18:34;99858.69;;;12.76
76713;BMP280;65640;43.154;25.658;2023-04-15T00:21:00;99838.75;;;12.75
76713;BMP280;65640;43.154;25.658;2023-04-15T00:23:26;99805.19;;;12.85
76713;BMP280;65640;43.154;25.658;2023-04-15T00:25:51;99800.84;;;12.89
76713;BMP280;65640;43.154;25.658;2023-04-15T00:28:17;99826.53;;;12.92
76713;BMP280;65640;43.154;25.658;2023-04-15T00:30:43;99840.63;;;12.96
76713;BMP280;65640;43.154;25.658;2023-04-15T00:33:09;99855.00;;;12.99
76713;BMP280;65640;43.154;25.658;2023-04-15T00:35:35;99869.50;;;12.96
76713;BMP280;65640;43.154;25.658;2023-04-15T00:38:01;99877.31;;;12.88
76713;BMP280;65640;43.154;25.658;2023-04-15T00:40:27;99864.31;;;12.83
76713;BMP280;65640;43.154;25.658;2023-04-15T00:42:52;99863.19;;;12.75
76713;BMP280;65640;43.154;25.658;2023-04-15T00:45:18;99866.78;;;12.79
76713;BMP280;65640;43.154;25.658;2023-04-15T00:47:44;99879.13;;;12.79
76713;BMP280;65640;43.154;25.658;2023-04-15T00:50:11;99855.78;;;12.77
76713;BMP280;65640;43.154;25.658;2023-04-15T00:52:37;99858.69;;;12.76
76713;BMP280;65640;43.154;25.658;2023-04-15T00:55:03;99848.97;;;12.76
76713;BMP280;65640;43.154;25.658;2023-04-15T00:57:29;99853.44;;;12.76
76713;BMP280;65640;43.154;25.658;2023-04-15T00:59:55;99866.00;;;12.79
76713;BMP280;65640;43.154;25.658;2023-04-15T01:02:21;99867.06;;;12.78
76713;BMP280;65640;43.154;25.658;2023-04-15T01:04:47;99846.47;;;12.71
76713;BMP280;65640;43.154;25.658;2023-04-15T01:07:13;99847.81;;;12.69
76713;BMP280;65640;43.154;25.658;2023-04-15T01:09:39;99868.72;;;12.74
76713;BMP280;65640;43.154;25.658;2023-04-15T01:12:05;99878.66;;;12.77
76713;BMP280;65640;43.154;25.658;2023-04-15T01:14:32;99881.47;;;12.67
76713;BMP280;65640;43.154;25.658;2023-04-15T01:16:58;99884.59;;;12.69
76713;BMP280;65640;43.154;25.658;2023-04-15T01:19:23;99869.59;;;12.69
76713;BMP280;65640;43.154;25.658;2023-04-15T01:21:48;99850.00;;;12.53
76713;BMP280;65640;43.154;25.658;2023-04-15T01:24:17;99832.63;;;12.57
76713;BMP280;65640;43.154;25.658;2023-04-15T01:26:42;99808.00;;;12.53
76713;BMP280;65640;43.154;25.658;2023-04-15T01:29:08;99791.09;;;12.59
76713;BMP280;65640;43.154;25.658;2023-04-15T01:31:34;99795.56;;;12.59
76713;BMP280;65640;43.154;25.658;2023-04-15T01:34:00;99830.00;;;12.57
76713;BMP280;65640;43.154;25.658;2023-04-15T01:36:26;99841.84;;;12.54
76713;BMP280;65640;43.154;25.658;2023-04-15T01:38:52;99860.22;;;12.54
76713;BMP280;65640;43.154;25.658;2023-04-15T01:41:25;99884.47;;;12.51
76713;BMP280;65640;43.154;25.658;2023-04-15T01:43:51;99878.22;;;12.47
76713;BMP280;65640;43.154;25.658;2023-04-15T01:46:17;99870.94;;;12.44
76713;BMP280;65640;43.154;25.658;2023-04-15T01:48:42;99860.91;;;12.46
76713;BMP280;65640;43.154;25.658;2023-04-15T01:51:08;99841.34;;;12.30
76713;BMP280;65640;43.154;25.658;2023-04-15T01:53:33;99850.53;;;12.41
76713;BMP280;65640;43.154;25.658;2023-04-15T01:55:59;99845.03;;;12.29
76713;BMP280;65640;43.154;25.658;2023-04-15T01:58:24;99845.03;;;12.29
76713;BMP280;65640;43.154;25.658;2023-04-15T02:00:50;99850.16;;;12.34
76713;BMP280;65640;43.154;25.658;2023-04-15T02:03:15;99848.72;;;12.28
76713;BMP280;65640;43.154;25.658;2023-04-15T02:05:41;99810.03;;;12.20
76713;BMP280;65640;43.154;25.658;2023-04-15T02:08:06;99787.63;;;12.14
76713;BMP280;65640;43.154;25.658;2023-04-15T02:10:32;99796.63;;;12.22
76713;BMP280;65640;43.154;25.658;2023-04-15T02:12:57;99817.22;;;12.28
76713;BMP280;65640;43.154;25.658;2023-04-15T02:15:23;99838.22;;;12.28
76713;BMP280;65640;43.154;25.658;2023-04-15T02:17:48;99864.56;;;12.23
76713;BMP280;65640;43.154;25.658;2023-04-15T02:20:17;99880.72;;;12.17
76713;BMP280;65640;43.154;25.658;2023-04-15T02:22:43;99874.22;;;12.14
76713;BMP280;65640;43.154;25.658;2023-04-15T02:25:09;99875.28;;;12.13
76713;BMP280;65640;43.154;25.658;2023-04-15T02:27:35;99865.38;;;12.10
76713;BMP280;65640;43.154;25.658;2023-04-15T02:30:01;99865.06;;;12.11
76713;BMP280;65640;43.154;25.658;2023-04-15T02:32:26;99856.41;;;12.11
76713;BMP280;65640;43.154;25.658;2023-04-15T02:34:53;99848.25;;;11.99
76713;BMP280;65640;43.154;25.658;2023-04-15T02:37:18;99834.50;;;11.93
76713;BMP280;65640;43.154;25.658;2023-04-15T02:39:45;99837.75;;;11.99
76713;BMP280;65640;43.154;25.658;2023-04-15T02:42:10;99844.00;;;12.03
76713;BMP280;65640;43.154;25.658;2023-04-15T02:44:36;99858.25;;;11.97
76713;BMP280;65640;43.154;25.658;2023-04-15T02:47:01;99877.28;;;11.75
76713;BMP280;65640;43.154;25.658;2023-04-15T02:49:28;99895.47;;;11.71
76713;BMP280;65640;43.154;25.658;2023-04-15T02:51:55;99907.03;;;11.70
76713;BMP280;65640;43.154;25.658;2023-04-15T02:54:23;99904.13;;;11.72
76713;BMP280;65640;43.154;25.658;2023-04-15T02:56:48;99899.16;;;11.70
76713;BMP280;65640;43.154;25.658;2023-04-15T02:59:14;99907.97;;;11.74
76713;BMP280;65640;43.154;25.658;2023-04-15T03:01:40;99896.41;;;11.76
76713;BMP280;65640;43.154;25.658;2023-04-15T03:04:05;99910.53;;;11.80
76713;BMP280;65640;43.154;25.658;2023-04-15T03:06:33;99915.16;;;11.69
76713;BMP280;65640;43.154;25.658;2023-04-15T03:08:59;99921.56;;;11.77
76713;BMP280;65640;43.154;25.658;2023-04-15T03:11:25;99918.56;;;11.69
76713;BMP280;65640;43.154;25.658;2023-04-15T03:13:51;99908.69;;;11.66
76713;BMP280;65640;43.154;25.658;2023-04-15T03:16:17;99911.22;;;11.53
76713;BMP280;65640;43.154;25.658;2023-04-15T03:18:42;99909.75;;;11.65
76713;BMP280;65640;43.154;25.658;2023-04-15T03:21:08;99899.25;;;11.65
76713;BMP280;65640;43.154;25.658;2023-04-15T03:23:33;99888.13;;;11.41
76713;BMP280;65640;43.154;25.658;2023-04-15T03:26:02;99886.84;;;11.39
76713;BMP280;65640;43.154;25.658;2023-04-15T03:28:28;99892.16;;;11.34
76713;BMP280;65640;43.154;25.658;2023-04-15T03:30:54;99905.78;;;11.36
76713;BMP280;65640;43.154;25.658;2023-04-15T03:33:19;99906.19;;;11.43
76713;BMP280;65640;43.154;25.658;2023-04-15T03:35:45;99894.16;;;11.42
76713;BMP280;65640;43.154;25.658;2023-04-15T03:38:10;99903.44;;;11.34
76713;BMP280;65640;43.154;25.658;2023-04-15T03:40:39;99898.38;;;11.38
76713;BMP280;65640;43.154;25.658;2023-04-15T03:43:05;99894.97;;;11.37
76713;BMP280;65640;43.154;25.658;2023-04-15T03:45:31;99895.13;;;11.46
76713;BMP280;65640;43.154;25.658;2023-04-15T03:47:56;99914.75;;;11.48
76713;BMP280;65640;43.154;25.658;2023-04-15T03:50:22;99921.69;;;11.39
76713;BMP280;65640;43.154;25.658;2023-04-15T03:52:47;99925.44;;;11.33
76713;BMP280;65640;43.154;25.658;2023-04-15T03:55:12;99925.38;;;11.38
76713;BMP280;65640;43.154;25.658;2023-04-15T03:57:38;99929.28;;;11.41
76713;BMP280;65640;43.154;25.658;2023-04-15T04:00:05;99940.03;;;11.39
76713;BMP280;65640;43.154;25.658;2023-04-15T04:02:31;99938.63;;;11.47
76713;BMP280;65640;43.154;25.658;2023-04-15T04:04:56;99941.91;;;11.52
76713;BMP280;65640;43.154;25.658;2023-04-15T04:07:22;99953.66;;;11.55
76713;BMP280;65640;43.154;25.658;2023-04-15T04:09:48;99950.06;;;11.51
76713;BMP280;65640;43.154;25.658;2023-04-15T04:12:13;99956.09;;;11.51
76713;BMP280;65640;43.154;25.658;2023-04-15T04:14:39;99958.19;;;11.68
76713;BMP280;65640;43.154;25.658;2023-04-15T04:17:04;99965.28;;;11.67
76713;BMP280;65640;43.154;25.658;2023-04-15T04:19:29;99964.31;;;11.77
76713;BMP280;65640;43.154;25.658;2023-04-15T04:21:55;99967.84;;;11.86
76713;BMP280;65640;43.154;25.658;2023-04-15T04:24:21;99969.03;;;11.94
76713;BMP280;65640;43.154;25.658;2023-04-15T04:26:46;99964.38;;;12.04
76713;BMP280;65640;43.154;25.658;2023-04-15T04:29:11;99962.63;;;12.13
76713;BMP280;65640;43.154;25.658;2023-04-15T04:31:37;99970.72;;;12.17
76713;BMP280;65640;43.154;25.658;2023-04-15T04:34:02;99972.44;;;12.22
76713;BMP280;65640;43.154;25.658;2023-04-15T04:36:28;99978.97;;;12.24
76713;BMP280;65640;43.154;25.658;2023-04-15T04:38:53;99984.03;;;12.34
76713;BMP280;65640;43.154;25.658;2023-04-15T04:41:18;99987.22;;;12.45
76713;BMP280;65640;43.154;25.658;2023-04-15T04:43:44;99992.00;;;12.56
76713;BMP280;65640;43.154;25.658;2023-04-15T04:46:10;100000.53;;;12.76
76713;BMP280;65640;43.154;25.658;2023-04-15T04:48:36;100017.53;;;12.92
76713;BMP280;65640;43.154;25.658;2023-04-15T04:51:01;100023.47;;;12.97
76713;BMP280;65640;43.154;25.658;2023-04-15T04:53:27;100022.56;;;13.02
76713;BMP280;65640;43.154;25.658;2023-04-15T04:55:52;100029.66;;;13.02
76713;BMP280;65640;43.154;25.658;2023-04-15T04:58:18;100029.69;;;12.88
76713;BMP280;65640;43.154;25.658;2023-04-15T05:00:43;100040.56;;;12.95
76713;BMP280;65640;43.154;25.658;2023-04-15T05:03:09;100046.63;;;12.95
76713;BMP280;65640;43.154;25.658;2023-04-15T05:05:34;100058.78;;;13.05
76713;BMP280;65640;43.154;25.658;2023-04-15T05:08:01;100058.03;;;13.13
76713;BMP280;65640;43.154;25.658;2023-04-15T05:10:26;100056.47;;;13.26
76713;BMP280;65640;43.154;25.658;2023-04-15T05:12:52;100061.22;;;13.37
76713;BMP280;65640;43.154;25.658;2023-04-15T05:15:17;100057.41;;;13.43
76713;BMP280;65640;43.154;25.658;2023-04-15T05:17:43;100047.25;;;13.51
76713;BMP280;65640;43.154;25.658;2023-04-15T05:20:09;100048.19;;;13.55
76713;BMP280;65640;43.154;25.658;2023-04-15T05:22:34;100044.84;;;13.63
76713;BMP280;65640;43.154;25.658;2023-04-15T05:25:00;100035.13;;;13.63
76713;BMP280;65640;43.154;25.658;2023-04-15T05:27:25;100031.72;;;13.63
76713;BMP280;65640;43.154;25.658;2023-04-15T05:29:51;100033.59;;;13.71
76713;BMP280;65640;43.154;25.658;2023-04-15T05:32:16;100036.34;;;13.66
76713;BMP280;65640;43.154;25.658;2023-04-15T05:34:42;100034.25;;;13.76
76713;BMP280;65640;43.154;25.658;2023-04-15T05:37:07;100041.13;;;13.86
76713;BMP280;65640;43.154;25.658;2023-04-15T05:39:32;100041.97;;;14.04
76713;BMP280;65640;43.154;25.658;2023-04-15T05:41:58;100057.22;;;14.15
76713;BMP280;65640;43.154;25.658;2023-04-15T05:44:24;100052.16;;;14.27
76713;BMP280;65640;43.154;25.658;2023-04-15T05:46:50;100053.00;;;14.37
76713;BMP280;65640;43.154;25.658;2023-04-15T05:49:15;100058.75;;;14.47
76713;BMP280;65640;43.154;25.658;2023-04-15T05:51:40;100053.81;;;14.54
76713;BMP280;65640;43.154;25.658;2023-04-15T05:54:06;100038.78;;;14.55
76713;BMP280;65640;43.154;25.658;2023-04-15T05:56:31;100045.31;;;14.66
76713;BMP280;65640;43.154;25.658;2023-04-15T05:58:57;100049.03;;;14.73
76713;BMP280;65640;43.154;25.658;2023-04-15T06:01:22;100052.44;;;14.74
76713;BMP280;65640;43.154;25.658;2023-04-15T06:03:48;100053.13;;;14.88
76713;BMP280;65640;43.154;25.658;2023-04-15T06:06:14;100050.16;;;15.15
76713;BMP280;65640;43.154;25.658;2023-04-15T06:08:40;100049.53;;;15.53
76713;BMP280;65640;43.154;25.658;2023-04-15T06:11:05;100054.66;;;15.58
76713;BMP280;65640;43.154;25.658;2023-04-15T06:13:31;100053.69;;;15.71
76713;BMP280;65640;43.154;25.658;2023-04-15T06:15:57;100058.16;;;15.88
76713;BMP280;65640;43.154;25.658;2023-04-15T06:18:22;100055.63;;;15.91
76713;BMP280;65640;43.154;25.658;2023-04-15T06:20:48;100056.06;;;16.02
76713;BMP280;65640;43.154;25.658;2023-04-15T06:23:13;100065.03;;;16.18
76713;BMP280;65640;43.154;25.658;2023-04-15T06:25:38;100069.53;;;16.47
76713;BMP280;65640;43.154;25.658;2023-04-15T06:28:04;100072.28;;;16.59
76713;BMP280;65640;43.154;25.658;2023-04-15T06:30:29;100081.56;;;16.65
76713;BMP280;65640;43.154;25.658;2023-04-15T06:32:55;100088.09;;;16.68
76713;BMP280;65640;43.154;25.658;2023-04-15T06:35:20;100098.34;;;16.69
76713;BMP280;65640;43.154;25.658;2023-04-15T06:37:46;100093.69;;;16.66
76713;BMP280;65640;43.154;25.658;2023-04-15T06:40:11;100099.50;;;16.60
76713;BMP280;65640;43.154;25.658;2023-04-15T06:42:37;100102.41;;;16.67
76713;BMP280;65640;43.154;25.658;2023-04-15T06:45:03;100104.78;;;16.80
76713;BMP280;65640;43.154;25.658;2023-04-15T06:47:28;100102.78;;;16.77
76713;BMP280;65640;43.154;25.658;2023-04-15T06:49:54;100099.13;;;16.90
76713;BMP280;65640;43.154;25.658;2023-04-15T06:52:19;100098.41;;;17.11
76713;BMP280;65640;43.154;25.658;2023-04-15T06:54:45;100108.19;;;17.10
76713;BMP280;65640;43.154;25.658;2023-04-15T06:57:11;100114.19;;;17.19
76713;BMP280;65640;43.154;25.658;2023-04-15T06:59:36;100113.09;;;17.20
76713;BMP280;65640;43.154;25.658;2023-04-15T07:02:01;100121.91;;;17.24
76713;BMP280;65640;43.154;25.658;2023-04-15T07:04:27;100116.81;;;17.19
76713;BMP280;65640;43.154;25.658;2023-04-15T07:06:53;100113.31;;;17.27
76713;BMP280;65640;43.154;25.658;2023-04-15T07:09:21;100112.31;;;17.20
76713;BMP280;65640;43.154;25.658;2023-04-15T07:11:46;100114.78;;;17.37
76713;BMP280;65640;43.154;25.658;2023-04-15T07:14:11;100119.75;;;17.38
76713;BMP280;65640;43.154;25.658;2023-04-15T07:16:37;100120.94;;;17.62
76713;BMP280;65640;43.154;25.658;2023-04-15T07:19:02;100125.81;;;17.60
76713;BMP280;65640;43.154;25.658;2023-04-15T07:21:28;100121.41;;;17.64
76713;BMP280;65640;43.154;25.658;2023-04-15T07:23:53;100134.28;;;17.65
76713;BMP280;65640;43.154;25.658;2023-04-15T07:26:19;100133.59;;;17.77
76713;BMP280;65640;43.154;25.658;2023-04-15T07:28:44;100133.53;;;18.10
76713;BMP280;65640;43.154;25.658;2023-04-15T07:31:11;100136.50;;;17.96
76713;BMP280;65640;43.154;25.658;2023-04-15T07:33:36;100132.88;;;18.01
76713;BMP280;65640;43.154;25.658;2023-04-15T07:36:02;100135.97;;;18.27
76713;BMP280;65640;43.154;25.658;2023-04-15T07:38:27;100140.16;;;18.52
76713;BMP280;65640;43.154;25.658;2023-04-15T07:40:53;100140.81;;;18.49
76713;BMP280;65640;43.154;25.658;2023-04-15T07:43:18;100147.44;;;18.19
76713;BMP280;65640;43.154;25.658;2023-04-15T07:45:45;100143.47;;;18.37
76713;BMP280;65640;43.154;25.658;2023-04-15T07:48:10;100136.31;;;18.50
76713;BMP280;65640;43.154;25.658;2023-04-15T07:50:36;100147.78;;;18.78
76713;BMP280;65640;43.154;25.658;2023-04-15T07:53:02;100145.66;;;18.83
76713;BMP280;65640;43.154;25.658;2023-04-15T07:55:27;100155.03;;;18.93
76713;BMP280;65640;43.154;25.658;2023-04-15T07:57:54;100150.97;;;18.83
76713;BMP280;65640;43.154;25.658;2023-04-15T08:00:20;100147.88;;;18.81
76713;BMP280;65640;43.154;25.658;2023-04-15T08:02:45;100157.28;;;18.91
76713;BMP280;65640;43.154;25.658;2023-04-15T08:05:12;100158.59;;;18.85
76713;BMP280;65640;43.154;25.658;2023-04-15T08:07:39;100167.38;;;19.01
76713;BMP280;65640;43.154;25.658;2023-04-15T08:10:05;100167.38;;;19.13
76713;BMP280;65640;43.154;25.658;2023-04-15T08:12:31;100170.97;;;18.81
76713;BMP280;65640;43.154;25.658;2023-04-15T08:14:56;100168.78;;;18.71
76713;BMP280;65640;43.154;25.658;2023-04-15T08:17:22;100171.31;;;18.91
76713;BMP280;65640;43.154;25.658;2023-04-15T08:19:48;100170.19;;;18.92
76713;BMP280;65640;43.154;25.658;2023-04-15T08:22:14;100173.38;;;18.98
76713;BMP280;65640;43.154;25.658;2023-04-15T08:24:39;100177.84;;;19.22
76713;BMP280;65640;43.154;25.658;2023-04-15T08:27:05;100161.81;;;19.18
76713;BMP280;65640;43.154;25.658;2023-04-15T08:29:33;100169.16;;;19.09
76713;BMP280;65640;43.154;25.658;2023-04-15T08:31:59;100173.59;;;19.33
76713;BMP280;65640;43.154;25.658;2023-04-15T08:34:28;100173.97;;;19.19
76713;BMP280;65640;43.154;25.658;2023-04-15T08:36:54;100180.56;;;19.10
76713;BMP280;65640;43.154;25.658;2023-04-15T08:39:19;100172.84;;;18.92
76713;BMP280;65640;43.154;25.658;2023-04-15T08:42:09;100180.31;;;19.03
76713;BMP280;65640;43.154;25.658;2023-04-15T08:44:36;100181.41;;;19.41
76713;BMP280;65640;43.154;25.658;2023-04-15T08:47:02;100167.44;;;19.57
76713;BMP280;65640;43.154;25.658;2023-04-15T08:49:28;100164.03;;;19.44
76713;BMP280;65640;43.154;25.658;2023-04-15T08:51:57;100165.75;;;19.36
76713;BMP280;65640;43.154;25.658;2023-04-15T08:54:23;100168.09;;;19.26
76713;BMP280;65640;43.154;25.658;2023-04-15T08:56:49;100161.25;;;19.25
76713;BMP280;65640;43.154;25.658;2023-04-15T08:59:14;100169.84;;;19.34
76713;BMP280;65640;43.154;25.658;2023-04-15T09:01:41;100158.44;;;19.33
76713;BMP280;65640;43.154;25.658;2023-04-15T09:04:06;100158.66;;;19.40
76713;BMP280;65640;43.154;25.658;2023-04-15T09:06:32;100156.13;;;19.60
76713;BMP280;65640;43.154;25.658;2023-04-15T09:08:58;100150.16;;;19.78
76713;BMP280;65640;43.154;25.658;2023-04-15T09:11:23;100153.53;;;19.63
76713;BMP280;65640;43.154;25.658;2023-04-15T09:13:49;100142.75;;;19.72
76713;BMP280;65640;43.154;25.658;2023-04-15T09:16:15;100150.84;;;19.75
76713;BMP280;65640;43.154;25.658;2023-04-15T09:18:41;100149.06;;;19.79
76713;BMP280;65640;43.154;25.658;2023-04-15T09:21:12;100140.13;;;19.87
76713;BMP280;65640;43.154;25.658;2023-04-15T09:23:39;100141.75;;;20.08
76713;BMP280;65640;43.154;25.658;2023-04-15T09:26:05;100146.13;;;19.84
76713;BMP280;65640;43.154;25.658;2023-04-15T09:28:31;100145.53;;;19.75
76713;BMP280;65640;43.154;25.658;2023-04-15T09:30:57;100156.13;;;20.07
76713;BMP280;65640;43.154;25.658;2023-04-15T09:33:23;100145.81;;;20.36
76713;BMP280;65640;43.154;25.658;2023-04-15T09:35:57;100151.34;;;20.12
76713;BMP280;65640;43.154;25.658;2023-04-15T09:38:23;100155.72;;;20.20
76713;BMP280;65640;43.154;25.658;2023-04-15T09:40:48;100146.34;;;20.11
76713;BMP280;65640;43.154;25.658;2023-04-15T09:43:14;100148.47;;;20.02
76713;BMP280;65640;43.154;25.658;2023-04-15T09:45:51;100143.41;;;19.97
76713;BMP280;65640;43.154;25.658;2023-04-15T09:48:20;100146.53;;;19.86
76713;BMP280;65640;43.154;25.658;2023-04-15T09:50:47;100132.66;;;19.77
76713;BMP280;65640;43.154;25.658;2023-04-15T09:53:18;100137.34;;;19.68
76713;BMP280;65640;43.154;25.658;2023-04-15T09:56:02;100132.50;;;19.42
76713;BMP280;65640;43.154;25.658;2023-04-15T09:58:31;100137.13;;;19.58
76713;BMP280;65640;43.154;25.658;2023-04-15T10:00:58;100131.38;;;19.87
76713;BMP280;65640;43.154;25.658;2023-04-15T10:03:27;100127.44;;;19.97
76713;BMP280;65640;43.154;25.658;2023-04-15T10:05:55;100132.66;;;20.24
76713;BMP280;65640;43.154;25.658;2023-04-15T10:08:29;100127.06;;;20.64
76713;BMP280;65640;43.154;25.658;2023-04-15T10:10:56;100119.34;;;20.78
76713;BMP280;65640;43.154;25.658;2023-04-15T10:13:26;100121.47;;;20.69
76713;BMP280;65640;43.154;25.658;2023-04-15T10:15:59;100112.91;;;20.99
76713;BMP280;65640;43.154;25.658;2023-04-15T10:18:26;100109.97;;;20.65
76713;BMP280;65640;43.154;25.658;2023-04-15T10:20:52;100103.81;;;20.80
76713;BMP280;65640;43.154;25.658;2023-04-15T10:23:19;100109.56;;;21.02
76713;BMP280;65640;43.154;25.658;2023-04-15T10:25:46;100108.25;;;20.92
76713;BMP280;65640;43.154;25.658;2023-04-15T10:28:12;100122.25;;;20.89
76713;BMP280;65640;43.154;25.658;2023-04-15T10:30:38;100118.59;;;21.16
76713;BMP280;65640;43.154;25.658;2023-04-15T10:33:04;100117.94;;;21.23
76713;BMP280;65640;43.154;25.658;2023-04-15T10:35:31;100111.59;;;21.08
76713;BMP280;65640;43.154;25.658;2023-04-15T10:37:58;100113.00;;;21.44
76713;BMP280;65640;43.154;25.658;2023-04-15T10:40:25;100115.16;;;21.58
76713;BMP280;65640;43.154;25.658;2023-04-15T10:42:53;100111.44;;;21.62
76713;BMP280;65640;43.154;25.658;2023-04-15T10:45:19;100120.19;;;21.85
76713;BMP280;65640;43.154;25.658;2023-04-15T10:47:44;100116.94;;;21.99
76713;BMP280;65640;43.154;25.658;2023-04-15T10:50:10;100117.31;;;21.75
76713;BMP280;65640;43.154;25.658;2023-04-15T10:52:39;100108.75;;;21.85
76713;BMP280;65640;43.154;25.658;2023-04-15T10:57:37;100112.28;;;21.47
76713;BMP280;65640;43.154;25.658;2023-04-15T11:00:15;100093.81;;;21.35
76713;BMP280;65640;43.154;25.658;2023-04-15T11:05:11;100090.28;;;21.08
76713;BMP280;65640;43.154;25.658;2023-04-15T11:12:58;100101.59;;;21.02
76713;BMP280;65640;43.154;25.658;2023-04-15T11:15:42;100099.31;;;21.46
76713;BMP280;65640;43.154;25.658;2023-04-15T11:18:25;100097.69;;;21.86
76713;BMP280;65640;43.154;25.658;2023-04-15T11:20:52;100097.69;;;22.39
76713;BMP280;65640;43.154;25.658;2023-04-15T11:23:27;100095.75;;;22.69
76713;BMP280;65640;43.154;25.658;2023-04-15T11:25:54;100087.94;;;22.87
76713;BMP280;65640;43.154;25.658;2023-04-15T11:28:32;100081.75;;;23.16
76713;BMP280;65640;43.154;25.658;2023-04-15T11:31:05;100077.75;;;22.99
76713;BMP280;65640;43.154;25.658;2023-04-15T11:33:30;100082.31;;;22.99
76713;BMP280;65640;43.154;25.658;2023-04-15T11:35:56;100084.94;;;23.32
76713;BMP280;65640;43.154;25.658;2023-04-15T11:38:21;100070.47;;;23.37
76713;BMP280;65640;43.154;25.658;2023-04-15T11:40:47;100070.91;;;23.02
76713;BMP280;65640;43.154;25.658;2023-04-15T11:45:59;100071.91;;;22.87
76713;BMP280;65640;43.154;25.658;2023-04-15T11:48:33;100062.50;;;22.96
76713;BMP280;65640;43.154;25.658;2023-04-15T11:51:01;100054.03;;;22.91
76713;BMP280;65640;43.154;25.658;2023-04-15T11:56:06;100054.84;;;22.98
76713;BMP280;65640;43.154;25.658;2023-04-15T11:58:34;100053.25;;;22.90
76713;BMP280;65640;43.154;25.658;2023-04-15T12:01:02;100059.59;;;22.75
76713;BMP280;65640;43.154;25.658;2023-04-15T12:03:30;100050.13;;;22.81
76713;BMP280;65640;43.154;25.658;2023-04-15T12:06:12;100053.47;;;23.12
76713;BMP280;65640;43.154;25.658;2023-04-15T12:09:02;100053.94;;;23.24
76713;BMP280;65640;43.154;25.658;2023-04-15T12:16:36;100047.84;;;23.78
76713;BMP280;65640;43.154;25.658;2023-04-15T12:19:09;100039.94;;;23.38
76713;BMP280;65640;43.154;25.658;2023-04-15T12:21:36;100034.59;;;23.38
76713;BMP280;65640;43.154;25.658;2023-04-15T12:24:08;100037.38;;;23.52
76713;BMP280;65640;43.154;25.658;2023-04-15T12:26:36;100037.78;;;23.58
76713;BMP280;65640;43.154;25.658;2023-04-15T12:29:06;100030.19;;;23.67
76713;BMP280;65640;43.154;25.658;2023-04-15T12:31:35;100038.69;;;23.83
76713;BMP280;65640;43.154;25.658;2023-04-15T12:34:02;100034.06;;;23.73
76713;BMP280;65640;43.154;25.658;2023-04-15T12:36:29;100030.31;;;23.84
76713;BMP280;65640;43.154;25.658;2023-04-15T12:39:00;100024.09;;;23.63
76713;BMP280;65640;43.154;25.658;2023-04-15T12:41:25;100032.31;;;23.43
76713;BMP280;65640;43.154;25.658;2023-04-15T12:43:51;100032.44;;;23.58
76713;BMP280;65640;43.154;25.658;2023-04-15T12:46:16;100023.13;;;23.99
76713;BMP280;65640;43.154;25.658;2023-04-15T12:48:42;100030.09;;;24.28
76713;BMP280;65640;43.154;25.658;2023-04-15T12:51:07;100026.63;;;24.14
76713;BMP280;65640;43.154;25.658;2023-04-15T12:53:33;100030.34;;;23.95
76713;BMP280;65640;43.154;25.658;2023-04-15T12:55:58;100022.00;;;24.14
76713;BMP280;65640;43.154;25.658;2023-04-15T12:58:24;100007.53;;;24.22
76713;BMP280;65640;43.154;25.658;2023-04-15T13:00:50;100014.00;;;24.21
76713;BMP280;65640;43.154;25.658;2023-04-15T13:03:15;100015.44;;;23.87
76713;BMP280;65640;43.154;25.658;2023-04-15T13:05:41;100005.72;;;23.61
76713;BMP280;65640;43.154;25.658;2023-04-15T13:08:07;100006.13;;;23.67
76713;BMP280;65640;43.154;25.658;2023-04-15T13:10:33;100009.50;;;23.57
76713;BMP280;65640;43.154;25.658;2023-04-15T13:13:01;100012.75;;;23.87
76713;BMP280;65640;43.154;25.658;2023-04-15T13:15:26;100003.88;;;23.72
76713;BMP280;65640;43.154;25.658;2023-04-15T13:17:51;100003.31;;;23.45
76713;BMP280;65640;43.154;25.658;2023-04-15T13:20:18;99995.59;;;23.30
76713;BMP280;65640;43.154;25.658;2023-04-15T13:22:43;100004.59;;;23.08
76713;BMP280;65640;43.154;25.658;2023-04-15T13:25:09;99999.97;;;22.64
76713;BMP280;65640;43.154;25.658;2023-04-15T13:27:34;99999.16;;;22.23
76713;BMP280;65640;43.154;25.658;2023-04-15T13:30:00;100001.72;;;22.46
76713;BMP280;65640;43.154;25.658;2023-04-15T13:32:25;100001.44;;;22.58
76713;BMP280;65640;43.154;25.658;2023-04-15T13:34:51;99997.44;;;22.78
76713;BMP280;65640;43.154;25.658;2023-04-15T13:37:16;99995.91;;;22.74
76713;BMP280;65640;43.154;25.658;2023-04-15T13:39:42;100000.06;;;22.71
76713;BMP280;65640;43.154;25.658;2023-04-15T13:42:07;99994.56;;;22.94
76713;BMP280;65640;43.154;25.658;2023-04-15T13:44:33;99985.25;;;22.77
76713;BMP280;65640;43.154;25.658;2023-04-15T13:46:59;99989.31;;;22.64
76713;BMP280;65640;43.154;25.658;2023-04-15T13:49:24;99995.25;;;22.47
76713;BMP280;65640;43.154;25.658;2023-04-15T13:51:50;100001.31;;;22.14
76713;BMP280;65640;43.154;25.658;2023-04-15T13:54:16;100002.75;;;22.05
76713;BMP280;65640;43.154;25.658;2023-04-15T13:56:41;100001.41;;;21.91
76713;BMP280;65640;43.154;25.658;2023-04-15T13:59:07;100010.22;;;21.95
76713;BMP280;65640;43.154;25.658;2023-04-15T14:01:33;100008.44;;;22.03
76713;BMP280;65640;43.154;25.658;2023-04-15T14:03:59;100013.19;;;21.90
76713;BMP280;65640;43.154;25.658;2023-04-15T14:06:24;100011.34;;;21.94